EAGO2: Mountain Fork Riv, Eagletown,

                                SHEF ID:       EAGO2     Mountain Fork near Eagletown, OK
STATION TYPE: Stream Gauge
Regulating: Stage = 9.00, Flow = 9433

PRECIP STAGE RIV-FLOW WTR-TEMP BAT-LOAD
in ft cfs F volt
Ccp-Rev Ccp-Rev Ccp-Rev Ccp-Rev Ccp-Rev
(America/Chicago)
05/05 00:00 0.00 4.39 2862 68.32 12.09
05/05 01:00 0.00 4.21 2646 68.76 12.09
05/05 02:00 0.00 4.00 2403 67.95 12.57
05/05 03:00 0.00 3.76 2121 66.72 12.65
05/05 04:00 0.00 3.52 1856 65.82 12.57
05/05 05:00 0.00 3.30 1625 65.14 12.01
05/05 06:00 0.00 3.11 1438 64.69 12.57
05/05 07:00 0.00 2.93 1268 64.31 12.57
05/05 08:00 0.00 2.75 1112 63.99 12.49
05/05 09:00 0.00 2.59 982 63.84 12.57
05/05 10:00 0.00 2.43 858 63.75 11.93
05/05 11:00 0.00 2.32 779 63.72 12.01
05/05 12:00 0.00 2.20 699 63.82 13.13
05/05 13:00 0.00 2.09 633 63.93 13.21
05/05 14:00 0.00 1.99 577 64.13 12.65
05/05 15:00 0.00 1.90 532 64.45 12.65
05/05 16:00 0.00 1.81 490 64.76 12.57
05/05 17:00 0.00 1.73 454 64.89 12.41
05/05 18:00 0.00 1.66 425 65.01 12.33
05/05 19:00 0.00 1.67 429 65.03 12.25
05/05 20:00 0.00 2.07 621 64.83 12.17
05/05 21:00 0.00 2.93 1268 64.02 12.01
05/05 22:00 0.00 3.36 1687 63.09 12.81
05/05 23:00 0.00 3.35 1676 63.39 12.73
Data processed at Wed 06May2026 04:39 GMT

NOTICE: If you are parsing this page

Please convert to using our Data API. Starting early 2026 we will be migrating to: https://water.usace.army.mil with modern pages rendered in JavaScript. When this migration completes you will no longer be able to scrape this page! CWMSDataAPI (CDA)

Timeseries IDs (TSIDs)

TSIDs used from left to right in the data table
EAGL.Precip-Inc.Total.1Hour.1Hour.Ccp-Rev
EAGL.Stage.Inst.1Hour.0.Ccp-Rev
EAGL.Flow.Inst.1Hour.0.Ccp-Rev
EAGL.Temp-Water.Inst.1Hour.0.Ccp-Rev
EAGL.Volt-Battery Load.Inst.1Hour.0.Ccp-Rev

                            

All information presented herein is the property of the government of the United States of America and may be revised or deleted at any time without prior notice. Dissemination of this information without the expressed written consent of the Public Affairs Office, Tulsa District U.S. Army Corps of Engineers is strictly prohibited. These data are gathered electronically and, as presented, have NOT undergone any form of quality control. These data are NOT guaranteed to be valid or correct.